sensor_id;sensor_type;location;lat;lon;timestamp;P1;durP1;ratioP1;P2;durP2;ratioP2
44376;SDS011;30093;0.000;0.000;2022-07-05T00:02:01;12.67;;;3.30;;
44376;SDS011;30093;0.000;0.000;2022-07-05T00:05:49;6.93;;;3.10;;
44376;SDS011;30093;0.000;0.000;2022-07-05T00:09:38;5.53;;;2.80;;
44376;SDS011;30093;0.000;0.000;2022-07-05T00:13:26;3.95;;;2.22;;
44376;SDS011;30093;0.000;0.000;2022-07-05T00:17:14;5.57;;;2.60;;
44376;SDS011;30093;0.000;0.000;2022-07-05T00:21:02;7.82;;;3.35;;
44376;SDS011;30093;0.000;0.000;2022-07-05T00:24:51;9.80;;;3.17;;
44376;SDS011;30093;0.000;0.000;2022-07-05T00:28:39;3.95;;;2.72;;
44376;SDS011;30093;0.000;0.000;2022-07-05T00:32:28;5.85;;;2.75;;
44376;SDS011;30093;0.000;0.000;2022-07-05T00:36:16;7.63;;;3.13;;
44376;SDS011;30093;0.000;0.000;2022-07-05T00:40:05;11.07;;;2.88;;
44376;SDS011;30093;0.000;0.000;2022-07-05T00:47:46;6.07;;;2.50;;
44376;SDS011;30093;0.000;0.000;2022-07-05T00:51:36;5.68;;;3.17;;
44376;SDS011;30093;0.000;0.000;2022-07-05T00:55:25;4.65;;;2.90;;
44376;SDS011;30093;0.000;0.000;2022-07-05T00:59:14;4.32;;;3.28;;
44376;SDS011;30093;0.000;0.000;2022-07-05T01:03:03;5.37;;;3.53;;
44376;SDS011;30093;0.000;0.000;2022-07-05T01:06:52;6.30;;;3.45;;
44376;SDS011;30093;0.000;0.000;2022-07-05T01:10:42;8.02;;;3.40;;
44376;SDS011;30093;0.000;0.000;2022-07-05T01:14:30;4.82;;;3.47;;
44376;SDS011;30093;0.000;0.000;2022-07-05T01:18:19;5.30;;;3.40;;
44376;SDS011;30093;0.000;0.000;2022-07-05T01:22:12;7.95;;;3.55;;
44376;SDS011;30093;0.000;0.000;2022-07-05T01:26:05;7.30;;;3.65;;
44376;SDS011;30093;0.000;0.000;2022-07-05T01:29:55;6.63;;;3.80;;
44376;SDS011;30093;0.000;0.000;2022-07-05T01:33:43;11.20;;;3.75;;
44376;SDS011;30093;0.000;0.000;2022-07-05T01:37:31;6.18;;;4.13;;
44376;SDS011;30093;0.000;0.000;2022-07-05T01:41:20;7.50;;;4.15;;
44376;SDS011;30093;0.000;0.000;2022-07-05T01:45:09;5.15;;;4.22;;
44376;SDS011;30093;0.000;0.000;2022-07-05T01:48:58;6.10;;;4.68;;
44376;SDS011;30093;0.000;0.000;2022-07-05T01:52:52;6.43;;;4.30;;
44376;SDS011;30093;0.000;0.000;2022-07-05T01:56:41;4.78;;;3.70;;
44376;SDS011;30093;0.000;0.000;2022-07-05T02:00:30;7.57;;;4.10;;
44376;SDS011;30093;0.000;0.000;2022-07-05T02:04:18;8.05;;;4.05;;
44376;SDS011;30093;0.000;0.000;2022-07-05T02:08:08;10.07;;;4.45;;
44376;SDS011;30093;0.000;0.000;2022-07-05T02:11:57;13.60;;;4.93;;
44376;SDS011;30093;0.000;0.000;2022-07-05T02:15:45;8.15;;;4.80;;
44376;SDS011;30093;0.000;0.000;2022-07-05T02:19:37;8.15;;;4.22;;
44376;SDS011;30093;0.000;0.000;2022-07-05T02:23:28;6.78;;;4.53;;
44376;SDS011;30093;0.000;0.000;2022-07-05T02:27:18;5.93;;;4.13;;
44376;SDS011;30093;0.000;0.000;2022-07-05T02:31:06;4.18;;;3.78;;
44376;SDS011;30093;0.000;0.000;2022-07-05T02:34:55;6.30;;;3.95;;
44376;SDS011;30093;0.000;0.000;2022-07-05T02:38:44;4.75;;;4.05;;
44376;SDS011;30093;0.000;0.000;2022-07-05T02:42:33;12.00;;;4.72;;
44376;SDS011;30093;0.000;0.000;2022-07-05T02:46:23;8.52;;;4.20;;
44376;SDS011;30093;0.000;0.000;2022-07-05T02:50:14;4.45;;;4.05;;
44376;SDS011;30093;0.000;0.000;2022-07-05T02:54:08;5.55;;;4.28;;
44376;SDS011;30093;0.000;0.000;2022-07-05T02:57:58;5.85;;;4.07;;
44376;SDS011;30093;0.000;0.000;2022-07-05T03:01:51;7.05;;;4.97;;
44376;SDS011;30093;0.000;0.000;2022-07-05T03:05:39;6.60;;;4.50;;
44376;SDS011;30093;0.000;0.000;2022-07-05T03:09:28;7.75;;;4.78;;
44376;SDS011;30093;0.000;0.000;2022-07-05T03:13:18;5.32;;;4.28;;
44376;SDS011;30093;0.000;0.000;2022-07-05T03:17:07;7.15;;;4.85;;
44376;SDS011;30093;0.000;0.000;2022-07-05T03:20:56;6.47;;;4.97;;
44376;SDS011;30093;0.000;0.000;2022-07-05T03:24:47;8.18;;;4.57;;
44376;SDS011;30093;0.000;0.000;2022-07-05T03:32:26;9.77;;;4.82;;
44376;SDS011;30093;0.000;0.000;2022-07-05T03:36:15;10.00;;;6.65;;
44376;SDS011;30093;0.000;0.000;2022-07-05T03:40:06;7.47;;;4.85;;
44376;SDS011;30093;0.000;0.000;2022-07-05T03:43:55;8.02;;;5.15;;
44376;SDS011;30093;0.000;0.000;2022-07-05T03:47:44;7.50;;;4.82;;
44376;SDS011;30093;0.000;0.000;2022-07-05T03:51:35;6.20;;;4.60;;
44376;SDS011;30093;0.000;0.000;2022-07-05T03:59:14;5.78;;;4.57;;
44376;SDS011;30093;0.000;0.000;2022-07-05T04:03:02;12.70;;;6.10;;
44376;SDS011;30093;0.000;0.000;2022-07-05T04:06:52;12.63;;;5.88;;
44376;SDS011;30093;0.000;0.000;2022-07-05T04:10:41;7.22;;;5.13;;
44376;SDS011;30093;0.000;0.000;2022-07-05T04:14:29;9.70;;;5.05;;
44376;SDS011;30093;0.000;0.000;2022-07-05T04:18:18;12.50;;;5.72;;
44376;SDS011;30093;0.000;0.000;2022-07-05T04:22:07;8.15;;;6.28;;
44376;SDS011;30093;0.000;0.000;2022-07-05T04:25:57;7.33;;;5.47;;
44376;SDS011;30093;0.000;0.000;2022-07-05T04:30:00;7.43;;;5.05;;
44376;SDS011;30093;0.000;0.000;2022-07-05T04:33:49;8.55;;;5.40;;
44376;SDS011;30093;0.000;0.000;2022-07-05T04:37:43;8.43;;;5.97;;
44376;SDS011;30093;0.000;0.000;2022-07-05T04:41:33;7.88;;;6.80;;
44376;SDS011;30093;0.000;0.000;2022-07-05T04:45:24;10.80;;;5.13;;
44376;SDS011;30093;0.000;0.000;2022-07-05T04:49:13;6.45;;;5.65;;
44376;SDS011;30093;0.000;0.000;2022-07-05T04:53:01;11.40;;;5.70;;
44376;SDS011;30093;0.000;0.000;2022-07-05T04:56:50;6.00;;;5.40;;
44376;SDS011;30093;0.000;0.000;2022-07-05T05:00:39;8.35;;;5.65;;
44376;SDS011;30093;0.000;0.000;2022-07-05T05:04:27;12.18;;;5.80;;
44376;SDS011;30093;0.000;0.000;2022-07-05T05:08:16;9.52;;;6.22;;
44376;SDS011;30093;0.000;0.000;2022-07-05T05:12:04;6.78;;;5.90;;
44376;SDS011;30093;0.000;0.000;2022-07-05T05:15:53;12.17;;;6.03;;
44376;SDS011;30093;0.000;0.000;2022-07-05T05:19:42;7.38;;;5.22;;
44376;SDS011;30093;0.000;0.000;2022-07-05T05:27:21;9.63;;;5.63;;
44376;SDS011;30093;0.000;0.000;2022-07-05T05:31:10;7.75;;;5.47;;
44376;SDS011;30093;0.000;0.000;2022-07-05T05:34:59;10.90;;;6.00;;
44376;SDS011;30093;0.000;0.000;2022-07-05T05:38:47;11.88;;;7.20;;
44376;SDS011;30093;0.000;0.000;2022-07-05T05:42:38;16.13;;;8.88;;
44376;SDS011;30093;0.000;0.000;2022-07-05T05:46:26;21.52;;;17.27;;
44376;SDS011;30093;0.000;0.000;2022-07-05T05:50:20;20.33;;;10.53;;
44376;SDS011;30093;0.000;0.000;2022-07-05T05:54:09;20.50;;;13.27;;
44376;SDS011;30093;0.000;0.000;2022-07-05T05:58:14;18.42;;;11.20;;
44376;SDS011;30093;0.000;0.000;2022-07-05T06:02:14;20.15;;;11.50;;
44376;SDS011;30093;0.000;0.000;2022-07-05T06:06:03;26.88;;;13.95;;
44376;SDS011;30093;0.000;0.000;2022-07-05T06:09:50;20.40;;;12.50;;
44376;SDS011;30093;0.000;0.000;2022-07-05T06:13:39;20.92;;;12.65;;
44376;SDS011;30093;0.000;0.000;2022-07-05T06:17:28;23.98;;;12.88;;
44376;SDS011;30093;0.000;0.000;2022-07-05T06:21:16;22.80;;;13.45;;
44376;SDS011;30093;0.000;0.000;2022-07-05T06:25:04;32.10;;;19.90;;
44376;SDS011;30093;0.000;0.000;2022-07-05T06:28:52;19.33;;;12.98;;
44376;SDS011;30093;0.000;0.000;2022-07-05T06:32:42;18.08;;;10.98;;
44376;SDS011;30093;0.000;0.000;2022-07-05T06:40:23;14.50;;;9.02;;
44376;SDS011;30093;0.000;0.000;2022-07-05T06:44:13;18.65;;;10.15;;
44376;SDS011;30093;0.000;0.000;2022-07-05T06:48:02;25.17;;;9.07;;
44376;SDS011;30093;0.000;0.000;2022-07-05T06:51:52;14.88;;;8.05;;
44376;SDS011;30093;0.000;0.000;2022-07-05T06:55:40;10.02;;;6.30;;
44376;SDS011;30093;0.000;0.000;2022-07-05T06:59:31;9.25;;;7.00;;
44376;SDS011;30093;0.000;0.000;2022-07-05T07:03:20;8.80;;;6.13;;
44376;SDS011;30093;0.000;0.000;2022-07-05T07:07:08;12.75;;;6.38;;
44376;SDS011;30093;0.000;0.000;2022-07-05T07:11:15;8.45;;;6.97;;
44376;SDS011;30093;0.000;0.000;2022-07-05T07:15:04;11.13;;;7.28;;
44376;SDS011;30093;0.000;0.000;2022-07-05T07:18:53;12.00;;;6.97;;
44376;SDS011;30093;0.000;0.000;2022-07-05T07:22:42;12.48;;;7.65;;
44376;SDS011;30093;0.000;0.000;2022-07-05T07:26:30;9.18;;;7.75;;
44376;SDS011;30093;0.000;0.000;2022-07-05T07:30:38;9.50;;;6.75;;
44376;SDS011;30093;0.000;0.000;2022-07-05T07:34:27;12.35;;;7.68;;
44376;SDS011;30093;0.000;0.000;2022-07-05T07:38:16;18.35;;;8.63;;
44376;SDS011;30093;0.000;0.000;2022-07-05T07:42:04;10.05;;;7.38;;
44376;SDS011;30093;0.000;0.000;2022-07-05T07:45:53;9.45;;;7.80;;
44376;SDS011;30093;0.000;0.000;2022-07-05T07:49:41;13.30;;;9.13;;
44376;SDS011;30093;0.000;0.000;2022-07-05T07:53:30;12.13;;;8.13;;
44376;SDS011;30093;0.000;0.000;2022-07-05T07:57:19;9.82;;;7.68;;
44376;SDS011;30093;0.000;0.000;2022-07-05T08:01:08;11.00;;;8.50;;
44376;SDS011;30093;0.000;0.000;2022-07-05T08:04:57;12.50;;;8.32;;
44376;SDS011;30093;0.000;0.000;2022-07-05T08:08:46;10.05;;;8.00;;
44376;SDS011;30093;0.000;0.000;2022-07-05T08:12:35;13.77;;;8.97;;
44376;SDS011;30093;0.000;0.000;2022-07-05T08:16:24;14.40;;;8.73;;
44376;SDS011;30093;0.000;0.000;2022-07-05T08:20:14;13.00;;;8.35;;
44376;SDS011;30093;0.000;0.000;2022-07-05T08:24:21;12.43;;;8.15;;
44376;SDS011;30093;0.000;0.000;2022-07-05T08:28:10;9.88;;;8.88;;
44376;SDS011;30093;0.000;0.000;2022-07-05T08:32:02;10.20;;;8.35;;
44376;SDS011;30093;0.000;0.000;2022-07-05T08:35:52;12.25;;;8.30;;
44376;SDS011;30093;0.000;0.000;2022-07-05T08:39:40;9.85;;;8.05;;
44376;SDS011;30093;0.000;0.000;2022-07-05T08:43:29;9.48;;;8.45;;
44376;SDS011;30093;0.000;0.000;2022-07-05T08:47:18;10.18;;;8.80;;
44376;SDS011;30093;0.000;0.000;2022-07-05T08:55:00;9.80;;;8.80;;
44376;SDS011;30093;0.000;0.000;2022-07-05T08:58:50;12.02;;;9.27;;
44376;SDS011;30093;0.000;0.000;2022-07-05T09:02:38;10.02;;;8.10;;
44376;SDS011;30093;0.000;0.000;2022-07-05T09:06:27;9.32;;;8.20;;
44376;SDS011;30093;0.000;0.000;2022-07-05T09:10:16;9.03;;;7.93;;
44376;SDS011;30093;0.000;0.000;2022-07-05T09:14:18;11.32;;;8.25;;
44376;SDS011;30093;0.000;0.000;2022-07-05T09:18:45;9.05;;;8.15;;
44376;SDS011;30093;0.000;0.000;2022-07-05T09:22:40;17.73;;;10.63;;
44376;SDS011;30093;0.000;0.000;2022-07-05T09:27:06;8.82;;;7.93;;
44376;SDS011;30093;0.000;0.000;2022-07-05T09:30:55;15.80;;;9.27;;
44376;SDS011;30093;0.000;0.000;2022-07-05T09:34:45;11.07;;;8.45;;
44376;SDS011;30093;0.000;0.000;2022-07-05T09:38:35;12.00;;;10.15;;
44376;SDS011;30093;0.000;0.000;2022-07-05T09:42:36;11.57;;;8.30;;
44376;SDS011;30093;0.000;0.000;2022-07-05T09:46:30;12.63;;;9.05;;
44376;SDS011;30093;0.000;0.000;2022-07-05T09:50:37;13.57;;;9.18;;
44376;SDS011;30093;0.000;0.000;2022-07-05T09:54:26;18.17;;;12.57;;
44376;SDS011;30093;0.000;0.000;2022-07-05T09:58:15;10.77;;;9.73;;
44376;SDS011;30093;0.000;0.000;2022-07-05T10:02:15;13.55;;;9.10;;
44376;SDS011;30093;0.000;0.000;2022-07-05T10:06:22;10.80;;;9.30;;
44376;SDS011;30093;0.000;0.000;2022-07-05T10:10:12;12.30;;;9.57;;
44376;SDS011;30093;0.000;0.000;2022-07-05T10:14:09;11.63;;;9.50;;
44376;SDS011;30093;0.000;0.000;2022-07-05T10:18:07;13.05;;;11.10;;
44376;SDS011;30093;0.000;0.000;2022-07-05T10:22:02;13.80;;;9.90;;
44376;SDS011;30093;0.000;0.000;2022-07-05T10:25:53;13.88;;;11.18;;
44376;SDS011;30093;0.000;0.000;2022-07-05T10:29:42;12.38;;;11.18;;
44376;SDS011;30093;0.000;0.000;2022-07-05T10:33:31;13.50;;;10.90;;
44376;SDS011;30093;0.000;0.000;2022-07-05T10:37:21;19.55;;;11.55;;
44376;SDS011;30093;0.000;0.000;2022-07-05T10:41:14;12.77;;;11.48;;
44376;SDS011;30093;0.000;0.000;2022-07-05T10:49:20;14.05;;;12.40;;
44376;SDS011;30093;0.000;0.000;2022-07-05T10:53:08;18.13;;;13.80;;
44376;SDS011;30093;0.000;0.000;2022-07-05T11:05:07;17.17;;;15.35;;
44376;SDS011;30093;0.000;0.000;2022-07-05T11:12:47;16.75;;;13.70;;
44376;SDS011;30093;0.000;0.000;2022-07-05T11:16:36;15.75;;;13.98;;
44376;SDS011;30093;0.000;0.000;2022-07-05T11:20:26;17.15;;;14.65;;
44376;SDS011;30093;0.000;0.000;2022-07-05T11:28:17;15.52;;;13.93;;
44376;SDS011;30093;0.000;0.000;2022-07-05T11:32:07;19.00;;;13.32;;
44376;SDS011;30093;0.000;0.000;2022-07-05T11:39:45;15.02;;;13.60;;
44376;SDS011;30093;0.000;0.000;2022-07-05T11:43:38;14.48;;;12.98;;
44376;SDS011;30093;0.000;0.000;2022-07-05T11:47:38;14.13;;;10.43;;
44376;SDS011;30093;0.000;0.000;2022-07-05T11:51:28;11.80;;;10.20;;
44376;SDS011;30093;0.000;0.000;2022-07-05T11:55:21;13.20;;;9.95;;
44376;SDS011;30093;0.000;0.000;2022-07-05T11:59:19;13.02;;;9.57;;
44376;SDS011;30093;0.000;0.000;2022-07-05T12:03:12;8.77;;;7.75;;
44376;SDS011;30093;0.000;0.000;2022-07-05T12:07:01;9.18;;;8.25;;
44376;SDS011;30093;0.000;0.000;2022-07-05T12:10:49;9.15;;;8.20;;
44376;SDS011;30093;0.000;0.000;2022-07-05T12:14:58;7.70;;;6.50;;
44376;SDS011;30093;0.000;0.000;2022-07-05T12:18:47;9.32;;;6.32;;
44376;SDS011;30093;0.000;0.000;2022-07-05T12:22:40;7.45;;;5.90;;
44376;SDS011;30093;0.000;0.000;2022-07-05T12:26:30;7.65;;;5.75;;
44376;SDS011;30093;0.000;0.000;2022-07-05T12:30:20;8.88;;;5.97;;
44376;SDS011;30093;0.000;0.000;2022-07-05T12:34:19;5.93;;;4.95;;
44376;SDS011;30093;0.000;0.000;2022-07-05T12:38:15;9.50;;;4.50;;
44376;SDS011;30093;0.000;0.000;2022-07-05T12:42:08;5.63;;;3.95;;
44376;SDS011;30093;0.000;0.000;2022-07-05T12:46:04;7.93;;;4.50;;
44376;SDS011;30093;0.000;0.000;2022-07-05T12:49:56;6.85;;;3.60;;
44376;SDS011;30093;0.000;0.000;2022-07-05T12:53:45;3.88;;;3.45;;
44376;SDS011;30093;0.000;0.000;2022-07-05T12:57:53;4.75;;;3.53;;
44376;SDS011;30093;0.000;0.000;2022-07-05T13:01:50;5.28;;;3.53;;
44376;SDS011;30093;0.000;0.000;2022-07-05T13:05:38;5.03;;;3.97;;
44376;SDS011;30093;0.000;0.000;2022-07-05T13:13:16;4.10;;;3.70;;
44376;SDS011;30093;0.000;0.000;2022-07-05T13:17:08;5.90;;;4.30;;
44376;SDS011;30093;0.000;0.000;2022-07-05T13:20:59;5.35;;;3.95;;
44376;SDS011;30093;0.000;0.000;2022-07-05T13:24:47;6.32;;;4.70;;
44376;SDS011;30093;0.000;0.000;2022-07-05T13:28:36;7.15;;;4.13;;
44376;SDS011;30093;0.000;0.000;2022-07-05T13:32:25;5.50;;;4.70;;
44376;SDS011;30093;0.000;0.000;2022-07-05T13:36:13;8.60;;;4.30;;
44376;SDS011;30093;0.000;0.000;2022-07-05T13:40:02;6.72;;;4.60;;
44376;SDS011;30093;0.000;0.000;2022-07-05T13:43:51;5.77;;;4.60;;
44376;SDS011;30093;0.000;0.000;2022-07-05T13:47:39;5.88;;;4.63;;
44376;SDS011;30093;0.000;0.000;2022-07-05T13:51:27;5.60;;;5.03;;
44376;SDS011;30093;0.000;0.000;2022-07-05T13:55:16;5.97;;;5.28;;
44376;SDS011;30093;0.000;0.000;2022-07-05T13:59:05;6.55;;;5.00;;
44376;SDS011;30093;0.000;0.000;2022-07-05T14:02:53;8.38;;;6.68;;
44376;SDS011;30093;0.000;0.000;2022-07-05T14:06:43;11.43;;;7.23;;
44376;SDS011;30093;0.000;0.000;2022-07-05T14:10:31;13.63;;;9.05;;
44376;SDS011;30093;0.000;0.000;2022-07-05T14:14:20;15.02;;;9.35;;
44376;SDS011;30093;0.000;0.000;2022-07-05T14:18:09;16.00;;;9.95;;
44376;SDS011;30093;0.000;0.000;2022-07-05T14:21:58;10.85;;;6.60;;
44376;SDS011;30093;0.000;0.000;2022-07-05T14:25:47;10.25;;;5.70;;
44376;SDS011;30093;0.000;0.000;2022-07-05T14:29:36;8.63;;;5.28;;
44376;SDS011;30093;0.000;0.000;2022-07-05T14:33:25;11.85;;;6.47;;
44376;SDS011;30093;0.000;0.000;2022-07-05T14:37:14;11.98;;;10.05;;
44376;SDS011;30093;0.000;0.000;2022-07-05T14:41:02;11.90;;;9.10;;
44376;SDS011;30093;0.000;0.000;2022-07-05T14:44:50;8.57;;;5.55;;
44376;SDS011;30093;0.000;0.000;2022-07-05T14:48:38;6.25;;;5.15;;
44376;SDS011;30093;0.000;0.000;2022-07-05T14:52:26;8.15;;;5.78;;
44376;SDS011;30093;0.000;0.000;2022-07-05T14:56:16;5.18;;;4.30;;
44376;SDS011;30093;0.000;0.000;2022-07-05T15:00:06;7.55;;;4.72;;
44376;SDS011;30093;0.000;0.000;2022-07-05T15:03:56;6.40;;;4.07;;
44376;SDS011;30093;0.000;0.000;2022-07-05T15:07:46;7.55;;;4.40;;
44376;SDS011;30093;0.000;0.000;2022-07-05T15:11:35;4.95;;;3.53;;
44376;SDS011;30093;0.000;0.000;2022-07-05T15:15:23;8.50;;;4.43;;
44376;SDS011;30093;0.000;0.000;2022-07-05T15:19:11;9.93;;;4.32;;
44376;SDS011;30093;0.000;0.000;2022-07-05T15:23:00;5.45;;;4.15;;
44376;SDS011;30093;0.000;0.000;2022-07-05T15:26:49;7.75;;;5.05;;
44376;SDS011;30093;0.000;0.000;2022-07-05T15:30:38;4.72;;;3.63;;
44376;SDS011;30093;0.000;0.000;2022-07-05T15:34:26;6.45;;;4.95;;
44376;SDS011;30093;0.000;0.000;2022-07-05T15:38:15;6.18;;;4.18;;
44376;SDS011;30093;0.000;0.000;2022-07-05T15:42:04;8.13;;;5.07;;
44376;SDS011;30093;0.000;0.000;2022-07-05T15:45:53;9.13;;;6.57;;
44376;SDS011;30093;0.000;0.000;2022-07-05T15:49:43;8.93;;;7.43;;
44376;SDS011;30093;0.000;0.000;2022-07-05T15:53:32;9.98;;;7.15;;
44376;SDS011;30093;0.000;0.000;2022-07-05T15:57:21;10.20;;;8.52;;
44376;SDS011;30093;0.000;0.000;2022-07-05T16:01:13;15.75;;;11.15;;
44376;SDS011;30093;0.000;0.000;2022-07-05T16:05:03;13.40;;;11.55;;
44376;SDS011;30093;0.000;0.000;2022-07-05T16:08:51;9.55;;;8.43;;
44376;SDS011;30093;0.000;0.000;2022-07-05T16:12:40;8.70;;;7.80;;
44376;SDS011;30093;0.000;0.000;2022-07-05T16:16:29;11.88;;;7.60;;
44376;SDS011;30093;0.000;0.000;2022-07-05T16:20:17;10.35;;;8.75;;
44376;SDS011;30093;0.000;0.000;2022-07-05T16:24:06;8.68;;;7.43;;
44376;SDS011;30093;0.000;0.000;2022-07-05T16:27:54;10.77;;;8.95;;
44376;SDS011;30093;0.000;0.000;2022-07-05T16:31:42;10.88;;;7.93;;
44376;SDS011;30093;0.000;0.000;2022-07-05T16:35:30;11.75;;;8.90;;
44376;SDS011;30093;0.000;0.000;2022-07-05T16:39:18;10.15;;;6.80;;
44376;SDS011;30093;0.000;0.000;2022-07-05T16:43:06;9.68;;;8.65;;
44376;SDS011;30093;0.000;0.000;2022-07-05T16:46:54;13.43;;;7.60;;
44376;SDS011;30093;0.000;0.000;2022-07-05T16:50:44;7.72;;;6.90;;
44376;SDS011;30093;0.000;0.000;2022-07-05T16:54:33;8.85;;;7.63;;
44376;SDS011;30093;0.000;0.000;2022-07-05T16:58:21;6.97;;;6.15;;
44376;SDS011;30093;0.000;0.000;2022-07-05T17:02:09;10.30;;;6.82;;
44376;SDS011;30093;0.000;0.000;2022-07-05T17:05:57;7.82;;;7.05;;
44376;SDS011;30093;0.000;0.000;2022-07-05T17:09:46;8.18;;;6.57;;
44376;SDS011;30093;0.000;0.000;2022-07-05T17:13:34;8.98;;;8.02;;
44376;SDS011;30093;0.000;0.000;2022-07-05T17:17:26;6.63;;;5.85;;
44376;SDS011;30093;0.000;0.000;2022-07-05T17:21:15;8.00;;;4.80;;
44376;SDS011;30093;0.000;0.000;2022-07-05T17:25:04;5.85;;;4.70;;
44376;SDS011;30093;0.000;0.000;2022-07-05T17:28:53;9.65;;;5.03;;
44376;SDS011;30093;0.000;0.000;2022-07-05T17:32:41;8.27;;;5.30;;
44376;SDS011;30093;0.000;0.000;2022-07-05T17:36:30;15.82;;;12.25;;
44376;SDS011;30093;0.000;0.000;2022-07-05T17:40:18;8.38;;;5.97;;
44376;SDS011;30093;0.000;0.000;2022-07-05T17:44:07;8.32;;;5.15;;
44376;SDS011;30093;0.000;0.000;2022-07-05T17:47:55;6.30;;;4.50;;
44376;SDS011;30093;0.000;0.000;2022-07-05T17:51:44;5.20;;;4.07;;
44376;SDS011;30093;0.000;0.000;2022-07-05T17:55:33;9.77;;;4.35;;
44376;SDS011;30093;0.000;0.000;2022-07-05T17:59:21;6.95;;;4.22;;
44376;SDS011;30093;0.000;0.000;2022-07-05T18:03:10;6.05;;;3.72;;
44376;SDS011;30093;0.000;0.000;2022-07-05T18:06:58;6.78;;;4.07;;
44376;SDS011;30093;0.000;0.000;2022-07-05T18:10:47;5.60;;;4.13;;
44376;SDS011;30093;0.000;0.000;2022-07-05T18:14:35;6.55;;;4.20;;
44376;SDS011;30093;0.000;0.000;2022-07-05T18:18:23;6.75;;;6.05;;
44376;SDS011;30093;0.000;0.000;2022-07-05T18:22:13;5.60;;;4.93;;
44376;SDS011;30093;0.000;0.000;2022-07-05T18:26:03;70.80;;;63.25;;
44376;SDS011;30093;0.000;0.000;2022-07-05T18:29:51;8.73;;;7.75;;
44376;SDS011;30093;0.000;0.000;2022-07-05T18:33:41;9.00;;;5.57;;
44376;SDS011;30093;0.000;0.000;2022-07-05T18:37:30;11.90;;;5.40;;
44376;SDS011;30093;0.000;0.000;2022-07-05T18:41:18;6.13;;;4.82;;
44376;SDS011;30093;0.000;0.000;2022-07-05T18:45:07;6.53;;;5.15;;
44376;SDS011;30093;0.000;0.000;2022-07-05T18:48:56;7.40;;;5.97;;
44376;SDS011;30093;0.000;0.000;2022-07-05T18:52:44;6.90;;;6.05;;
44376;SDS011;30093;0.000;0.000;2022-07-05T18:56:33;8.57;;;6.20;;
44376;SDS011;30093;0.000;0.000;2022-07-05T19:00:21;10.80;;;6.93;;
44376;SDS011;30093;0.000;0.000;2022-07-05T19:04:10;14.50;;;8.80;;
44376;SDS011;30093;0.000;0.000;2022-07-05T19:07:57;10.55;;;8.38;;
44376;SDS011;30093;0.000;0.000;2022-07-05T19:12:04;11.82;;;9.32;;
44376;SDS011;30093;0.000;0.000;2022-07-05T19:16:14;14.65;;;13.20;;
44376;SDS011;30093;0.000;0.000;2022-07-05T19:20:04;21.02;;;16.48;;
44376;SDS011;30093;0.000;0.000;2022-07-05T19:23:53;10.77;;;9.68;;
44376;SDS011;30093;0.000;0.000;2022-07-05T19:27:41;10.18;;;9.18;;
44376;SDS011;30093;0.000;0.000;2022-07-05T19:31:30;11.18;;;10.07;;
44376;SDS011;30093;0.000;0.000;2022-07-05T19:35:19;10.68;;;9.32;;
44376;SDS011;30093;0.000;0.000;2022-07-05T19:39:08;11.32;;;9.95;;
44376;SDS011;30093;0.000;0.000;2022-07-05T19:46:45;10.70;;;9.70;;
44376;SDS011;30093;0.000;0.000;2022-07-05T19:50:33;11.20;;;9.80;;
44376;SDS011;30093;0.000;0.000;2022-07-05T19:54:22;12.40;;;10.68;;
44376;SDS011;30093;0.000;0.000;2022-07-05T19:58:10;12.20;;;10.75;;
44376;SDS011;30093;0.000;0.000;2022-07-05T20:02:00;12.45;;;11.20;;
44376;SDS011;30093;0.000;0.000;2022-07-05T20:05:49;13.30;;;11.98;;
44376;SDS011;30093;0.000;0.000;2022-07-05T20:09:37;12.55;;;11.45;;
44376;SDS011;30093;0.000;0.000;2022-07-05T20:13:27;14.50;;;10.30;;
44376;SDS011;30093;0.000;0.000;2022-07-05T20:17:16;11.63;;;10.20;;
44376;SDS011;30093;0.000;0.000;2022-07-05T20:21:05;12.23;;;11.07;;
44376;SDS011;30093;0.000;0.000;2022-07-05T20:24:54;17.08;;;10.90;;
44376;SDS011;30093;0.000;0.000;2022-07-05T20:28:42;14.90;;;11.32;;
44376;SDS011;30093;0.000;0.000;2022-07-05T20:32:30;19.33;;;14.57;;
44376;SDS011;30093;0.000;0.000;2022-07-05T20:36:19;21.10;;;14.70;;
44376;SDS011;30093;0.000;0.000;2022-07-05T20:40:08;19.02;;;13.88;;
44376;SDS011;30093;0.000;0.000;2022-07-05T20:43:57;15.82;;;13.35;;
44376;SDS011;30093;0.000;0.000;2022-07-05T20:47:46;19.23;;;14.88;;
44376;SDS011;30093;0.000;0.000;2022-07-05T20:51:34;23.80;;;16.88;;
44376;SDS011;30093;0.000;0.000;2022-07-05T20:55:23;27.38;;;19.33;;
44376;SDS011;30093;0.000;0.000;2022-07-05T20:59:10;27.17;;;19.03;;
44376;SDS011;30093;0.000;0.000;2022-07-05T21:02:59;25.42;;;19.63;;
44376;SDS011;30093;0.000;0.000;2022-07-05T21:06:48;23.98;;;17.50;;
44376;SDS011;30093;0.000;0.000;2022-07-05T21:10:36;27.95;;;18.50;;
44376;SDS011;30093;0.000;0.000;2022-07-05T21:14:24;29.58;;;21.92;;
44376;SDS011;30093;0.000;0.000;2022-07-05T21:18:13;40.00;;;24.00;;
44376;SDS011;30093;0.000;0.000;2022-07-05T21:22:03;36.95;;;23.65;;
44376;SDS011;30093;0.000;0.000;2022-07-05T21:25:53;35.88;;;23.38;;
44376;SDS011;30093;0.000;0.000;2022-07-05T21:29:43;34.55;;;22.35;;
44376;SDS011;30093;0.000;0.000;2022-07-05T21:33:31;32.10;;;19.60;;
44376;SDS011;30093;0.000;0.000;2022-07-05T21:37:21;23.98;;;16.42;;
44376;SDS011;30093;0.000;0.000;2022-07-05T21:41:09;17.00;;;12.30;;
44376;SDS011;30093;0.000;0.000;2022-07-05T21:44:58;20.98;;;12.48;;
44376;SDS011;30093;0.000;0.000;2022-07-05T22:50:08;15.20;;;9.25;;
44376;SDS011;30093;0.000;0.000;2022-07-05T22:53:56;19.70;;;10.30;;
44376;SDS011;30093;0.000;0.000;2022-07-05T22:57:45;14.27;;;8.88;;
44376;SDS011;30093;0.000;0.000;2022-07-05T23:01:34;9.13;;;8.30;;
44376;SDS011;30093;0.000;0.000;2022-07-05T23:05:22;10.73;;;9.15;;
44376;SDS011;30093;0.000;0.000;2022-07-05T23:09:11;10.05;;;7.65;;
44376;SDS011;30093;0.000;0.000;2022-07-05T23:13:00;9.32;;;8.30;;
44376;SDS011;30093;0.000;0.000;2022-07-05T23:16:47;12.43;;;9.27;;
44376;SDS011;30093;0.000;0.000;2022-07-05T23:20:36;9.80;;;8.90;;
44376;SDS011;30093;0.000;0.000;2022-07-05T23:24:24;16.25;;;10.55;;
44376;SDS011;30093;0.000;0.000;2022-07-05T23:28:30;12.15;;;8.88;;
44376;SDS011;30093;0.000;0.000;2022-07-05T23:32:19;12.18;;;10.55;;
44376;SDS011;30093;0.000;0.000;2022-07-05T23:36:07;10.65;;;9.10;;
44376;SDS011;30093;0.000;0.000;2022-07-05T23:39:56;15.50;;;9.07;;
44376;SDS011;30093;0.000;0.000;2022-07-05T23:43:44;14.15;;;9.25;;
44376;SDS011;30093;0.000;0.000;2022-07-05T23:47:32;15.35;;;10.23;;
44376;SDS011;30093;0.000;0.000;2022-07-05T23:51:20;14.95;;;11.02;;
44376;SDS011;30093;0.000;0.000;2022-07-05T23:55:09;10.80;;;9.68;;
44376;SDS011;30093;0.000;0.000;2022-07-05T23:58:57;14.00;;;9.85;;
